sensor_id;sensor_type;location;lat;lon;timestamp;pressure;altitude;pressure_sealevel;temperature;humidity
23433;BME280;41331;45.412;10.992;2023-04-21T00:01:10;100671.47;;;12.36;96.97
23433;BME280;41331;45.412;10.992;2023-04-21T00:03:38;100664.94;;;12.29;97.38
23433;BME280;41331;45.412;10.992;2023-04-21T00:06:08;100665.28;;;12.27;97.90
23433;BME280;41331;45.412;10.992;2023-04-21T00:08:38;100663.75;;;12.17;100.00
23433;BME280;41331;45.412;10.992;2023-04-21T00:11:06;100665.22;;;12.15;100.00
23433;BME280;41331;45.412;10.992;2023-04-21T00:13:34;100666.63;;;12.00;100.00
23433;BME280;41331;45.412;10.992;2023-04-21T00:16:02;100665.34;;;11.98;100.00
23433;BME280;41331;45.412;10.992;2023-04-21T00:18:30;100660.34;;;12.00;100.00
23433;BME280;41331;45.412;10.992;2023-04-21T00:20:57;100656.56;;;12.13;100.00
23433;BME280;41331;45.412;10.992;2023-04-21T00:23:24;100659.88;;;12.18;100.00
23433;BME280;41331;45.412;10.992;2023-04-21T00:25:51;100660.56;;;12.15;100.00
23433;BME280;41331;45.412;10.992;2023-04-21T00:28:19;100651.78;;;12.10;100.00
23433;BME280;41331;45.412;10.992;2023-04-21T00:30:46;100645.59;;;12.01;100.00
23433;BME280;41331;45.412;10.992;2023-04-21T00:33:13;100647.53;;;12.00;100.00
23433;BME280;41331;45.412;10.992;2023-04-21T00:35:41;100647.19;;;12.02;100.00
23433;BME280;41331;45.412;10.992;2023-04-21T00:38:08;100640.94;;;12.01;100.00
23433;BME280;41331;45.412;10.992;2023-04-21T00:40:35;100647.97;;;12.02;100.00
23433;BME280;41331;45.412;10.992;2023-04-21T00:43:06;100636.91;;;11.99;100.00
23433;BME280;41331;45.412;10.992;2023-04-21T00:45:34;100638.25;;;12.13;100.00
23433;BME280;41331;45.412;10.992;2023-04-21T00:48:01;100637.59;;;12.16;99.66
23433;BME280;41331;45.412;10.992;2023-04-21T00:50:29;100633.13;;;12.12;99.65
23433;BME280;41331;45.412;10.992;2023-04-21T00:52:57;100627.19;;;12.31;97.68
23433;BME280;41331;45.412;10.992;2023-04-21T00:55:25;100627.59;;;12.54;95.21
23433;BME280;41331;45.412;10.992;2023-04-21T00:57:52;100627.81;;;12.49;95.14
23433;BME280;41331;45.412;10.992;2023-04-21T01:00:19;100632.25;;;12.41;95.54
23433;BME280;41331;45.412;10.992;2023-04-21T01:02:46;100628.38;;;12.42;96.12
23433;BME280;41331;45.412;10.992;2023-04-21T01:05:14;100632.56;;;12.39;96.88
23433;BME280;41331;45.412;10.992;2023-04-21T01:07:44;100630.19;;;12.38;97.14
23433;BME280;41331;45.412;10.992;2023-04-21T01:10:11;100629.16;;;12.42;97.07
23433;BME280;41331;45.412;10.992;2023-04-21T01:12:45;100627.25;;;12.43;97.76
23433;BME280;41331;45.412;10.992;2023-04-21T01:15:13;100633.84;;;12.42;98.11
23433;BME280;41331;45.412;10.992;2023-04-21T01:17:40;100627.09;;;12.39;99.34
23433;BME280;41331;45.412;10.992;2023-04-21T01:20:09;100635.03;;;12.32;100.00
23433;BME280;41331;45.412;10.992;2023-04-21T01:22:37;100631.53;;;12.32;99.54
23433;BME280;41331;45.412;10.992;2023-04-21T01:25:05;100635.50;;;12.55;97.00
23433;BME280;41331;45.412;10.992;2023-04-21T01:27:33;100636.81;;;12.49;97.36
23433;BME280;41331;45.412;10.992;2023-04-21T01:30:01;100640.88;;;12.43;100.00
23433;BME280;41331;45.412;10.992;2023-04-21T01:32:29;100637.38;;;12.42;100.00
23433;BME280;41331;45.412;10.992;2023-04-21T01:34:57;100641.38;;;12.45;100.00
23433;BME280;41331;45.412;10.992;2023-04-21T01:37:26;100632.34;;;12.44;99.84
23433;BME280;41331;45.412;10.992;2023-04-21T01:39:55;100631.91;;;12.42;100.00
23433;BME280;41331;45.412;10.992;2023-04-21T01:42:23;100636.50;;;12.51;99.36
23433;BME280;41331;45.412;10.992;2023-04-21T01:44:51;100631.81;;;12.51;98.19
23433;BME280;41331;45.412;10.992;2023-04-21T01:47:22;100631.09;;;12.75;96.51
23433;BME280;41331;45.412;10.992;2023-04-21T01:49:49;100631.41;;;12.74;96.12
23433;BME280;41331;45.412;10.992;2023-04-21T01:52:18;100627.75;;;12.69;97.21
23433;BME280;41331;45.412;10.992;2023-04-21T01:54:45;100622.31;;;12.69;96.77
23433;BME280;41331;45.412;10.992;2023-04-21T01:57:13;100635.16;;;12.69;96.33
23433;BME280;41331;45.412;10.992;2023-04-21T01:59:42;100623.78;;;12.67;96.24
23433;BME280;41331;45.412;10.992;2023-04-21T02:02:10;100627.34;;;12.80;95.50
23433;BME280;41331;45.412;10.992;2023-04-21T02:04:37;100617.47;;;12.87;94.67
23433;BME280;41331;45.412;10.992;2023-04-21T02:07:05;100621.34;;;12.86;94.71
23433;BME280;41331;45.412;10.992;2023-04-21T02:09:32;100611.19;;;12.99;92.87
23433;BME280;41331;45.412;10.992;2023-04-21T02:11:59;100623.16;;;12.94;92.77
23433;BME280;41331;45.412;10.992;2023-04-21T02:14:27;100618.38;;;12.91;93.04
23433;BME280;41331;45.412;10.992;2023-04-21T02:16:55;100611.22;;;13.11;90.31
23433;BME280;41331;45.412;10.992;2023-04-21T02:19:22;100613.84;;;13.20;90.68
23433;BME280;41331;45.412;10.992;2023-04-21T02:21:50;100619.75;;;13.10;90.89
23433;BME280;41331;45.412;10.992;2023-04-21T02:24:19;100611.69;;;13.01;91.86
23433;BME280;41331;45.412;10.992;2023-04-21T02:26:46;100613.25;;;13.02;92.26
23433;BME280;41331;45.412;10.992;2023-04-21T02:29:14;100613.63;;;13.13;90.35
23433;BME280;41331;45.412;10.992;2023-04-21T02:31:41;100614.50;;;13.05;91.44
23433;BME280;41331;45.412;10.992;2023-04-21T02:34:25;100616.00;;;13.02;90.89
23433;BME280;41331;45.412;10.992;2023-04-21T02:36:52;100607.09;;;12.93;91.88
23433;BME280;41331;45.412;10.992;2023-04-21T02:39:19;100615.75;;;12.95;92.64
23433;BME280;41331;45.412;10.992;2023-04-21T02:41:46;100607.09;;;12.93;92.51
23433;BME280;41331;45.412;10.992;2023-04-21T02:44:13;100606.19;;;12.89;92.62
23433;BME280;41331;45.412;10.992;2023-04-21T02:46:41;100625.78;;;12.91;93.07
23433;BME280;41331;45.412;10.992;2023-04-21T02:49:08;100619.03;;;12.88;92.94
23433;BME280;41331;45.412;10.992;2023-04-21T02:51:36;100621.78;;;12.88;93.80
23433;BME280;41331;45.412;10.992;2023-04-21T02:54:03;100624.78;;;12.95;92.24
23433;BME280;41331;45.412;10.992;2023-04-21T02:56:30;100617.94;;;13.02;91.99
23433;BME280;41331;45.412;10.992;2023-04-21T02:58:58;100627.16;;;12.97;92.35
23433;BME280;41331;45.412;10.992;2023-04-21T03:01:25;100628.59;;;12.94;92.86
23433;BME280;41331;45.412;10.992;2023-04-21T03:03:52;100641.38;;;12.90;93.87
23433;BME280;41331;45.412;10.992;2023-04-21T03:06:20;100636.78;;;12.82;95.73
23433;BME280;41331;45.412;10.992;2023-04-21T03:08:47;100643.94;;;12.75;95.60
23433;BME280;41331;45.412;10.992;2023-04-21T03:11:14;100638.69;;;12.69;97.65
23433;BME280;41331;45.412;10.992;2023-04-21T03:13:41;100637.66;;;12.62;97.43
23433;BME280;41331;45.412;10.992;2023-04-21T03:16:08;100650.03;;;12.59;98.24
23433;BME280;41331;45.412;10.992;2023-04-21T03:18:35;100637.06;;;12.56;97.55
23433;BME280;41331;45.412;10.992;2023-04-21T03:21:03;100649.25;;;12.59;97.98
23433;BME280;41331;45.412;10.992;2023-04-21T03:23:31;100648.31;;;12.55;98.64
23433;BME280;41331;45.412;10.992;2023-04-21T03:25:58;100655.25;;;12.52;99.01
23433;BME280;41331;45.412;10.992;2023-04-21T03:28:25;100659.22;;;12.55;98.90
23433;BME280;41331;45.412;10.992;2023-04-21T03:30:52;100654.13;;;12.53;98.74
23433;BME280;41331;45.412;10.992;2023-04-21T03:33:19;100663.91;;;12.54;98.89
23433;BME280;41331;45.412;10.992;2023-04-21T03:35:46;100659.34;;;12.46;98.86
23433;BME280;41331;45.412;10.992;2023-04-21T03:38:13;100658.53;;;12.46;100.00
23433;BME280;41331;45.412;10.992;2023-04-21T03:40:40;100661.38;;;12.49;99.75
23433;BME280;41331;45.412;10.992;2023-04-21T03:43:08;100654.88;;;12.41;100.00
23433;BME280;41331;45.412;10.992;2023-04-21T03:45:35;100658.06;;;12.43;100.00
23433;BME280;41331;45.412;10.992;2023-04-21T03:48:02;100663.28;;;12.36;100.00
23433;BME280;41331;45.412;10.992;2023-04-21T03:50:30;100660.06;;;12.34;100.00
23433;BME280;41331;45.412;10.992;2023-04-21T03:52:57;100664.81;;;12.58;98.23
23433;BME280;41331;45.412;10.992;2023-04-21T03:55:24;100658.81;;;12.65;97.70
23433;BME280;41331;45.412;10.992;2023-04-21T03:57:51;100659.50;;;12.62;98.19
23433;BME280;41331;45.412;10.992;2023-04-21T04:00:18;100644.34;;;12.64;97.37
23433;BME280;41331;45.412;10.992;2023-04-21T04:02:46;100646.41;;;12.55;98.88
23433;BME280;41331;45.412;10.992;2023-04-21T04:05:14;100655.13;;;12.49;99.64
23433;BME280;41331;45.412;10.992;2023-04-21T04:07:41;100655.59;;;12.51;99.68
23433;BME280;41331;45.412;10.992;2023-04-21T04:10:08;100656.59;;;12.46;98.87
23433;BME280;41331;45.412;10.992;2023-04-21T04:12:35;100649.50;;;12.66;97.11
23433;BME280;41331;45.412;10.992;2023-04-21T04:15:03;100660.22;;;12.71;96.42
23433;BME280;41331;45.412;10.992;2023-04-21T04:17:30;100653.91;;;12.58;96.72
23433;BME280;41331;45.412;10.992;2023-04-21T04:19:57;100655.19;;;12.61;96.41
23433;BME280;41331;45.412;10.992;2023-04-21T04:22:24;100658.44;;;12.54;96.58
23433;BME280;41331;45.412;10.992;2023-04-21T04:24:51;100653.53;;;12.48;96.81
23433;BME280;41331;45.412;10.992;2023-04-21T04:27:19;100654.75;;;12.38;98.06
23433;BME280;41331;45.412;10.992;2023-04-21T04:29:47;100668.03;;;12.39;98.16
23433;BME280;41331;45.412;10.992;2023-04-21T04:32:16;100665.22;;;12.36;97.70
23433;BME280;41331;45.412;10.992;2023-04-21T04:34:43;100668.59;;;12.33;98.11
23433;BME280;41331;45.412;10.992;2023-04-21T04:37:10;100668.44;;;12.29;99.14
23433;BME280;41331;45.412;10.992;2023-04-21T04:39:38;100675.84;;;12.29;98.55
23433;BME280;41331;45.412;10.992;2023-04-21T04:42:06;100674.13;;;12.24;99.80
23433;BME280;41331;45.412;10.992;2023-04-21T04:44:35;100675.25;;;12.23;100.00
23433;BME280;41331;45.412;10.992;2023-04-21T04:47:03;100682.19;;;12.21;100.00
23433;BME280;41331;45.412;10.992;2023-04-21T04:49:30;100681.59;;;12.15;100.00
23433;BME280;41331;45.412;10.992;2023-04-21T04:51:57;100679.13;;;12.22;100.00
23433;BME280;41331;45.412;10.992;2023-04-21T04:54:25;100681.59;;;12.36;99.32
23433;BME280;41331;45.412;10.992;2023-04-21T04:56:55;100685.09;;;12.36;99.32
23433;BME280;41331;45.412;10.992;2023-04-21T04:59:23;100688.50;;;12.33;100.00
23433;BME280;41331;45.412;10.992;2023-04-21T05:01:50;100688.28;;;12.38;100.00
23433;BME280;41331;45.412;10.992;2023-04-21T05:04:18;100692.03;;;12.34;100.00
23433;BME280;41331;45.412;10.992;2023-04-21T05:06:46;100690.56;;;12.36;100.00
23433;BME280;41331;45.412;10.992;2023-04-21T05:09:13;100693.09;;;12.41;100.00
23433;BME280;41331;45.412;10.992;2023-04-21T05:11:42;100698.75;;;12.36;100.00
23433;BME280;41331;45.412;10.992;2023-04-21T05:14:09;100706.75;;;12.41;100.00
23433;BME280;41331;45.412;10.992;2023-04-21T05:16:36;100704.59;;;12.47;100.00
23433;BME280;41331;45.412;10.992;2023-04-21T05:19:03;100708.94;;;12.48;100.00
23433;BME280;41331;45.412;10.992;2023-04-21T05:21:30;100716.91;;;12.53;100.00
23433;BME280;41331;45.412;10.992;2023-04-21T05:23:59;100713.53;;;12.56;100.00
23433;BME280;41331;45.412;10.992;2023-04-21T05:26:27;100714.78;;;12.59;99.63
23433;BME280;41331;45.412;10.992;2023-04-21T05:28:54;100713.31;;;12.61;100.00
23433;BME280;41331;45.412;10.992;2023-04-21T05:31:22;100717.19;;;12.60;100.00
23433;BME280;41331;45.412;10.992;2023-04-21T05:33:50;100720.50;;;12.66;100.00
23433;BME280;41331;45.412;10.992;2023-04-21T05:36:17;100720.63;;;12.69;100.00
23433;BME280;41331;45.412;10.992;2023-04-21T05:38:46;100723.97;;;12.75;100.00
23433;BME280;41331;45.412;10.992;2023-04-21T05:41:13;100719.53;;;12.83;100.00
23433;BME280;41331;45.412;10.992;2023-04-21T05:43:40;100724.00;;;12.87;100.00
23433;BME280;41331;45.412;10.992;2023-04-21T05:46:08;100723.44;;;12.94;100.00
23433;BME280;41331;45.412;10.992;2023-04-21T05:48:36;100725.50;;;12.97;100.00
23433;BME280;41331;45.412;10.992;2023-04-21T05:51:09;100725.06;;;13.07;100.00
23433;BME280;41331;45.412;10.992;2023-04-21T05:53:37;100722.56;;;13.14;100.00
23433;BME280;41331;45.412;10.992;2023-04-21T05:56:04;100733.56;;;13.27;100.00
23433;BME280;41331;45.412;10.992;2023-04-21T05:58:32;100733.34;;;13.32;98.98
23433;BME280;41331;45.412;10.992;2023-04-21T06:00:59;100728.47;;;13.50;95.82
23433;BME280;41331;45.412;10.992;2023-04-21T06:03:26;100725.06;;;13.65;97.83
23433;BME280;41331;45.412;10.992;2023-04-21T06:05:56;100734.63;;;13.83;98.96
23433;BME280;41331;45.412;10.992;2023-04-21T06:08:24;100728.47;;;13.98;98.49
23433;BME280;41331;45.412;10.992;2023-04-21T06:10:51;100743.59;;;14.20;97.01
23433;BME280;41331;45.412;10.992;2023-04-21T06:13:18;100733.88;;;14.47;90.25
23433;BME280;41331;45.412;10.992;2023-04-21T06:15:45;100736.34;;;14.81;87.07
23433;BME280;41331;45.412;10.992;2023-04-21T06:18:12;100737.22;;;14.97;88.76
23433;BME280;41331;45.412;10.992;2023-04-21T06:20:40;100734.03;;;15.11;86.50
23433;BME280;41331;45.412;10.992;2023-04-21T06:23:07;100733.72;;;15.28;85.38
23433;BME280;41331;45.412;10.992;2023-04-21T06:25:35;100733.81;;;15.32;84.22
23433;BME280;41331;45.412;10.992;2023-04-21T06:28:02;100732.75;;;15.36;81.38
23433;BME280;41331;45.412;10.992;2023-04-21T06:30:29;100735.94;;;15.54;82.29
23433;BME280;41331;45.412;10.992;2023-04-21T06:32:56;100726.53;;;16.02;79.27
23433;BME280;41331;45.412;10.992;2023-04-21T06:35:23;100726.47;;;16.18;78.97
23433;BME280;41331;45.412;10.992;2023-04-21T06:37:50;100716.38;;;16.61;78.02
23433;BME280;41331;45.412;10.992;2023-04-21T06:40:17;100713.88;;;17.86;72.23
23433;BME280;41331;45.412;10.992;2023-04-21T06:42:45;100722.00;;;19.85;64.76
23433;BME280;41331;45.412;10.992;2023-04-21T06:45:12;100709.94;;;21.62;57.95
23433;BME280;41331;45.412;10.992;2023-04-21T06:47:39;100704.88;;;23.36;51.40
23433;BME280;41331;45.412;10.992;2023-04-21T06:50:06;100714.59;;;24.72;46.92
23433;BME280;41331;45.412;10.992;2023-04-21T06:52:34;100718.03;;;25.61;45.19
23433;BME280;41331;45.412;10.992;2023-04-21T06:55:02;100725.09;;;24.88;44.73
23433;BME280;41331;45.412;10.992;2023-04-21T06:57:29;100722.13;;;23.62;48.50
23433;BME280;41331;45.412;10.992;2023-04-21T06:59:56;100729.31;;;21.84;50.03
23433;BME280;41331;45.412;10.992;2023-04-21T07:02:23;100732.13;;;21.34;54.33
23433;BME280;41331;45.412;10.992;2023-04-21T07:04:50;100731.03;;;19.34;55.86
23433;BME280;41331;45.412;10.992;2023-04-21T07:07:18;100736.88;;;19.25;60.31
23433;BME280;41331;45.412;10.992;2023-04-21T07:09:45;100730.91;;;18.82;61.11
23433;BME280;41331;45.412;10.992;2023-04-21T07:12:14;100744.41;;;18.31;64.63
23433;BME280;41331;45.412;10.992;2023-04-21T07:14:41;100735.66;;;17.95;64.81
23433;BME280;41331;45.412;10.992;2023-04-21T07:17:08;100736.38;;;17.43;66.04
23433;BME280;41331;45.412;10.992;2023-04-21T07:19:35;100734.22;;;17.55;66.91
23433;BME280;41331;45.412;10.992;2023-04-21T07:22:02;100748.66;;;17.26;67.18
23433;BME280;41331;45.412;10.992;2023-04-21T07:24:30;100743.06;;;16.99;69.34
23433;BME280;41331;45.412;10.992;2023-04-21T07:26:57;100749.56;;;16.91;68.34
23433;BME280;41331;45.412;10.992;2023-04-21T07:29:25;100753.50;;;16.90;67.36
23433;BME280;41331;45.412;10.992;2023-04-21T07:31:52;100753.78;;;17.04;67.60
23433;BME280;41331;45.412;10.992;2023-04-21T07:34:20;100758.91;;;17.52;66.60
23433;BME280;41331;45.412;10.992;2023-04-21T07:36:47;100757.00;;;17.52;66.49
23433;BME280;41331;45.412;10.992;2023-04-21T07:39:14;100760.47;;;18.25;65.30
23433;BME280;41331;45.412;10.992;2023-04-21T07:41:41;100758.41;;;18.75;62.65
23433;BME280;41331;45.412;10.992;2023-04-21T07:44:09;100765.22;;;18.25;62.85
23433;BME280;41331;45.412;10.992;2023-04-21T07:46:36;100763.84;;;18.42;63.39
23433;BME280;41331;45.412;10.992;2023-04-21T07:49:03;100756.94;;;18.55;63.70
23433;BME280;41331;45.412;10.992;2023-04-21T07:51:30;100762.47;;;18.85;61.22
23433;BME280;41331;45.412;10.992;2023-04-21T07:53:57;100766.50;;;18.95;60.94
23433;BME280;41331;45.412;10.992;2023-04-21T07:56:24;100766.09;;;18.93;59.54
23433;BME280;41331;45.412;10.992;2023-04-21T07:58:52;100769.94;;;18.54;61.12
23433;BME280;41331;45.412;10.992;2023-04-21T08:01:19;100777.63;;;18.42;62.33
23433;BME280;41331;45.412;10.992;2023-04-21T08:03:46;100771.44;;;18.48;61.61
23433;BME280;41331;45.412;10.992;2023-04-21T08:06:14;100773.22;;;18.63;60.88
23433;BME280;41331;45.412;10.992;2023-04-21T08:08:42;100775.16;;;18.63;61.04
23433;BME280;41331;45.412;10.992;2023-04-21T08:11:09;100782.38;;;17.88;62.37
23433;BME280;41331;45.412;10.992;2023-04-21T08:13:36;100774.78;;;17.81;63.74
23433;BME280;41331;45.412;10.992;2023-04-21T08:16:04;100782.56;;;17.76;62.91
23433;BME280;41331;45.412;10.992;2023-04-21T08:18:31;100784.19;;;17.57;63.78
23433;BME280;41331;45.412;10.992;2023-04-21T08:20:58;100787.47;;;17.67;63.14
23433;BME280;41331;45.412;10.992;2023-04-21T08:23:25;100784.31;;;17.65;63.53
23433;BME280;41331;45.412;10.992;2023-04-21T08:25:53;100785.75;;;18.31;63.26
23433;BME280;41331;45.412;10.992;2023-04-21T08:28:20;100792.66;;;18.74;59.81
23433;BME280;41331;45.412;10.992;2023-04-21T08:30:47;100794.50;;;18.67;60.29
23433;BME280;41331;45.412;10.992;2023-04-21T08:33:14;100793.19;;;18.83;61.00
23433;BME280;41331;45.412;10.992;2023-04-21T08:35:42;100790.06;;;18.28;60.17
23433;BME280;41331;45.412;10.992;2023-04-21T08:38:27;100794.88;;;18.35;60.62
23433;BME280;41331;45.412;10.992;2023-04-21T08:40:54;100796.06;;;17.84;61.62
23433;BME280;41331;45.412;10.992;2023-04-21T08:43:21;100800.84;;;17.88;62.03
23433;BME280;41331;45.412;10.992;2023-04-21T08:45:48;100801.44;;;17.54;63.83
23433;BME280;41331;45.412;10.992;2023-04-21T08:48:17;100802.47;;;17.69;62.88
23433;BME280;41331;45.412;10.992;2023-04-21T08:50:47;100799.44;;;17.97;63.24
23433;BME280;41331;45.412;10.992;2023-04-21T08:53:15;100795.88;;;18.23;61.86
23433;BME280;41331;45.412;10.992;2023-04-21T08:55:43;100800.47;;;18.16;61.93
23433;BME280;41331;45.412;10.992;2023-04-21T08:58:15;100803.47;;;18.03;61.26
23433;BME280;41331;45.412;10.992;2023-04-21T09:00:42;100809.94;;;17.69;63.27
23433;BME280;41331;45.412;10.992;2023-04-21T09:03:09;100802.16;;;17.51;63.58
23433;BME280;41331;45.412;10.992;2023-04-21T09:06:23;100805.28;;;17.50;63.93
23433;BME280;41331;45.412;10.992;2023-04-21T09:08:52;100803.34;;;17.96;62.89
23433;BME280;41331;45.412;10.992;2023-04-21T09:11:21;100808.91;;;18.00;62.72
23433;BME280;41331;45.412;10.992;2023-04-21T09:13:49;100807.41;;;18.06;62.50
23433;BME280;41331;45.412;10.992;2023-04-21T09:16:17;100801.28;;;18.16;61.52
23433;BME280;41331;45.412;10.992;2023-04-21T09:18:47;100804.25;;;18.04;61.67
23433;BME280;41331;45.412;10.992;2023-04-21T09:21:15;100797.03;;;18.22;62.41
23433;BME280;41331;45.412;10.992;2023-04-21T09:23:46;100807.13;;;18.37;62.89
23433;BME280;41331;45.412;10.992;2023-04-21T09:26:14;100805.50;;;18.63;60.03
23433;BME280;41331;45.412;10.992;2023-04-21T09:28:43;100793.16;;;18.53;60.18
23433;BME280;41331;45.412;10.992;2023-04-21T09:31:13;100799.88;;;18.56;61.40
23433;BME280;41331;45.412;10.992;2023-04-21T09:33:52;100792.44;;;18.60;61.23
23433;BME280;41331;45.412;10.992;2023-04-21T09:36:26;100791.81;;;18.70;59.52
23433;BME280;41331;45.412;10.992;2023-04-21T09:38:58;100789.97;;;18.51;59.86
23433;BME280;41331;45.412;10.992;2023-04-21T09:41:32;100795.53;;;18.55;60.73
23433;BME280;41331;45.412;10.992;2023-04-21T09:43:59;100798.53;;;18.43;60.93
23433;BME280;41331;45.412;10.992;2023-04-21T09:46:27;100797.13;;;18.56;61.37
23433;BME280;41331;45.412;10.992;2023-04-21T09:48:55;100797.25;;;18.67;59.71
23433;BME280;41331;45.412;10.992;2023-04-21T09:51:23;100792.75;;;18.81;59.57
23433;BME280;41331;45.412;10.992;2023-04-21T09:54:19;100797.97;;;19.27;59.02
23433;BME280;41331;45.412;10.992;2023-04-21T09:56:52;100789.91;;;19.08;57.86
23433;BME280;41331;45.412;10.992;2023-04-21T09:59:33;100795.06;;;19.50;56.18
23433;BME280;41331;45.412;10.992;2023-04-21T10:02:03;100786.72;;;19.87;56.69
23433;BME280;41331;45.412;10.992;2023-04-21T10:04:31;100787.63;;;20.02;54.74
23433;BME280;41331;45.412;10.992;2023-04-21T10:06:59;100790.06;;;20.11;54.46
23433;BME280;41331;45.412;10.992;2023-04-21T10:09:30;100794.97;;;19.80;53.58
23433;BME280;41331;45.412;10.992;2023-04-21T10:11:59;100783.03;;;19.69;54.49
23433;BME280;41331;45.412;10.992;2023-04-21T10:14:27;100781.63;;;19.89;54.75
23433;BME280;41331;45.412;10.992;2023-04-21T10:16:55;100767.31;;;19.77;53.17
23433;BME280;41331;45.412;10.992;2023-04-21T10:19:23;100780.19;;;19.62;53.92
23433;BME280;41331;45.412;10.992;2023-04-21T10:21:54;100774.56;;;19.96;54.87
23433;BME280;41331;45.412;10.992;2023-04-21T10:24:21;100780.03;;;19.92;54.05
23433;BME280;41331;45.412;10.992;2023-04-21T10:26:51;100767.03;;;19.89;55.16
23433;BME280;41331;45.412;10.992;2023-04-21T10:29:28;100772.09;;;20.46;52.85
23433;BME280;41331;45.412;10.992;2023-04-21T10:32:06;100769.88;;;20.03;51.91
23433;BME280;41331;45.412;10.992;2023-04-21T10:34:36;100773.66;;;19.81;51.72
23433;BME280;41331;45.412;10.992;2023-04-21T10:42:21;100763.31;;;21.27;52.01
23433;BME280;41331;45.412;10.992;2023-04-21T10:47:24;100762.16;;;21.53;49.68
23433;BME280;41331;45.412;10.992;2023-04-21T10:49:53;100763.28;;;21.09;50.14
23433;BME280;41331;45.412;10.992;2023-04-21T10:52:21;100762.94;;;21.32;50.18
23433;BME280;41331;45.412;10.992;2023-04-21T10:57:27;100761.81;;;20.42;51.24
23433;BME280;41331;45.412;10.992;2023-04-21T10:59:57;100759.72;;;21.16;51.47
23433;BME280;41331;45.412;10.992;2023-04-21T11:02:25;100762.19;;;21.39;50.56
23433;BME280;41331;45.412;10.992;2023-04-21T11:04:52;100766.13;;;21.77;50.70
23433;BME280;41331;45.412;10.992;2023-04-21T11:07:23;100761.19;;;20.71;49.51
23433;BME280;41331;45.412;10.992;2023-04-21T11:12:27;100762.56;;;21.55;50.80
23433;BME280;41331;45.412;10.992;2023-04-21T11:14:56;100764.94;;;22.00;50.62
23433;BME280;41331;45.412;10.992;2023-04-21T11:17:23;100755.81;;;21.95;46.95
23433;BME280;41331;45.412;10.992;2023-04-21T11:19:51;100763.75;;;21.76;47.08
23433;BME280;41331;45.412;10.992;2023-04-21T11:22:23;100757.03;;;21.73;48.34
23433;BME280;41331;45.412;10.992;2023-04-21T11:24:55;100755.44;;;22.11;46.89
23433;BME280;41331;45.412;10.992;2023-04-21T11:27:24;100762.19;;;21.64;47.11
23433;BME280;41331;45.412;10.992;2023-04-21T11:29:52;100748.34;;;21.50;48.24
23433;BME280;41331;45.412;10.992;2023-04-21T11:32:19;100742.72;;;21.21;48.18
23433;BME280;41331;45.412;10.992;2023-04-21T11:34:46;100756.97;;;21.27;48.96
23433;BME280;41331;45.412;10.992;2023-04-21T11:37:14;100756.81;;;20.73;47.34
23433;BME280;41331;45.412;10.992;2023-04-21T11:39:42;100752.66;;;21.33;47.32
23433;BME280;41331;45.412;10.992;2023-04-21T11:42:10;100747.34;;;20.67;49.12
23433;BME280;41331;45.412;10.992;2023-04-21T11:44:41;100743.56;;;21.71;48.50
23433;BME280;41331;45.412;10.992;2023-04-21T11:47:22;100758.59;;;21.92;46.79
23433;BME280;41331;45.412;10.992;2023-04-21T11:49:54;100751.50;;;21.66;48.26
23433;BME280;41331;45.412;10.992;2023-04-21T11:52:23;100754.63;;;22.11;46.27
23433;BME280;41331;45.412;10.992;2023-04-21T11:57:38;100754.19;;;21.23;46.02
23433;BME280;41331;45.412;10.992;2023-04-21T12:00:07;100752.53;;;20.86;46.57
23433;BME280;41331;45.412;10.992;2023-04-21T12:02:34;100750.69;;;21.90;47.04
23433;BME280;41331;45.412;10.992;2023-04-21T12:05:03;100749.13;;;21.54;44.37
23433;BME280;41331;45.412;10.992;2023-04-21T12:07:32;100750.25;;;22.03;45.26
23433;BME280;41331;45.412;10.992;2023-04-21T12:09:59;100737.09;;;22.49;45.44
23433;BME280;41331;45.412;10.992;2023-04-21T12:12:28;100740.16;;;22.73;44.17
23433;BME280;41331;45.412;10.992;2023-04-21T12:14:55;100749.88;;;21.97;40.69
23433;BME280;41331;45.412;10.992;2023-04-21T12:17:22;100752.19;;;22.38;42.37
23433;BME280;41331;45.412;10.992;2023-04-21T12:19:49;100758.63;;;21.85;43.62
23433;BME280;41331;45.412;10.992;2023-04-21T12:22:17;100763.69;;;21.22;47.59
23433;BME280;41331;45.412;10.992;2023-04-21T12:24:44;100762.06;;;21.07;47.32
23433;BME280;41331;45.412;10.992;2023-04-21T12:27:12;100755.66;;;20.74;47.30
23433;BME280;41331;45.412;10.992;2023-04-21T12:29:39;100753.66;;;20.64;47.51
23433;BME280;41331;45.412;10.992;2023-04-21T12:32:07;100753.28;;;20.69;48.88
23433;BME280;41331;45.412;10.992;2023-04-21T12:34:35;100760.88;;;20.93;47.28
23433;BME280;41331;45.412;10.992;2023-04-21T12:37:02;100755.44;;;21.51;47.76
23433;BME280;41331;45.412;10.992;2023-04-21T12:39:29;100752.28;;;21.77;47.03
23433;BME280;41331;45.412;10.992;2023-04-21T12:41:57;100761.41;;;21.74;45.55
23433;BME280;41331;45.412;10.992;2023-04-21T12:44:25;100766.38;;;20.90;47.76
23433;BME280;41331;45.412;10.992;2023-04-21T12:46:52;100767.69;;;21.32;48.12
23433;BME280;41331;45.412;10.992;2023-04-21T12:49:19;100759.81;;;21.69;48.47
23433;BME280;41331;45.412;10.992;2023-04-21T12:51:47;100747.94;;;21.80;47.30
23433;BME280;41331;45.412;10.992;2023-04-21T12:54:14;100757.81;;;21.45;46.99
23433;BME280;41331;45.412;10.992;2023-04-21T12:56:42;100761.28;;;21.06;47.80
23433;BME280;41331;45.412;10.992;2023-04-21T12:59:09;100754.97;;;20.99;48.00